sensor_id;sensor_type;location;lat;lon;timestamp;pressure;altitude;pressure_sealevel;temperature;humidity
15229;BME280;7717;47.792;12.076;2022-09-28T00:01:16;94850.31;;;8.19;100.00
15229;BME280;7717;47.792;12.076;2022-09-28T00:03:46;94839.28;;;8.17;100.00
15229;BME280;7717;47.792;12.076;2022-09-28T00:06:14;94842.69;;;8.19;100.00
15229;BME280;7717;47.792;12.076;2022-09-28T00:08:40;94836.63;;;8.23;100.00
15229;BME280;7717;47.792;12.076;2022-09-28T00:11:07;94820.56;;;8.20;100.00
15229;BME280;7717;47.792;12.076;2022-09-28T00:13:33;94817.06;;;8.27;100.00
15229;BME280;7717;47.792;12.076;2022-09-28T00:16:04;94821.22;;;8.31;100.00
15229;BME280;7717;47.792;12.076;2022-09-28T00:18:30;94809.31;;;8.32;100.00
15229;BME280;7717;47.792;12.076;2022-09-28T00:21:10;94804.16;;;8.35;100.00
15229;BME280;7717;47.792;12.076;2022-09-28T00:23:39;94805.72;;;8.42;100.00
15229;BME280;7717;47.792;12.076;2022-09-28T00:26:27;94789.75;;;8.32;100.00
15229;BME280;7717;47.792;12.076;2022-09-28T00:28:54;94792.22;;;8.37;100.00
15229;BME280;7717;47.792;12.076;2022-09-28T00:31:20;94780.50;;;8.26;100.00
15229;BME280;7717;47.792;12.076;2022-09-28T00:33:50;94781.25;;;8.33;100.00
15229;BME280;7717;47.792;12.076;2022-09-28T00:36:15;94787.88;;;8.43;100.00
15229;BME280;7717;47.792;12.076;2022-09-28T00:38:40;94786.56;;;8.22;100.00
15229;BME280;7717;47.792;12.076;2022-09-28T00:41:06;94779.34;;;8.46;100.00
15229;BME280;7717;47.792;12.076;2022-09-28T00:43:32;94783.25;;;8.62;100.00
15229;BME280;7717;47.792;12.076;2022-09-28T00:45:59;94770.69;;;8.53;100.00
15229;BME280;7717;47.792;12.076;2022-09-28T00:48:28;94769.69;;;8.62;100.00
15229;BME280;7717;47.792;12.076;2022-09-28T00:51:00;94759.44;;;8.63;100.00
15229;BME280;7717;47.792;12.076;2022-09-28T00:53:30;94763.66;;;8.66;100.00
15229;BME280;7717;47.792;12.076;2022-09-28T00:56:04;94760.50;;;8.52;100.00
15229;BME280;7717;47.792;12.076;2022-09-28T00:58:40;94747.03;;;8.46;100.00
15229;BME280;7717;47.792;12.076;2022-09-28T01:01:08;94746.13;;;8.49;100.00
15229;BME280;7717;47.792;12.076;2022-09-28T01:03:33;94730.84;;;8.49;100.00
15229;BME280;7717;47.792;12.076;2022-09-28T01:06:00;94740.91;;;8.55;100.00
15229;BME280;7717;47.792;12.076;2022-09-28T01:08:28;94740.97;;;8.52;100.00
15229;BME280;7717;47.792;12.076;2022-09-28T01:10:54;94705.41;;;8.46;100.00
15229;BME280;7717;47.792;12.076;2022-09-28T01:13:22;94703.66;;;8.48;100.00
15229;BME280;7717;47.792;12.076;2022-09-28T01:15:58;94702.50;;;8.63;100.00
15229;BME280;7717;47.792;12.076;2022-09-28T01:19:11;94697.97;;;8.76;100.00
15229;BME280;7717;47.792;12.076;2022-09-28T01:21:18;94688.03;;;8.63;100.00
15229;BME280;7717;47.792;12.076;2022-09-28T01:23:58;94690.38;;;8.73;100.00
15229;BME280;7717;47.792;12.076;2022-09-28T01:26:42;94678.66;;;8.64;100.00
15229;BME280;7717;47.792;12.076;2022-09-28T01:29:29;94694.31;;;8.88;100.00
15229;BME280;7717;47.792;12.076;2022-09-28T01:35:21;94693.59;;;8.81;100.00
15229;BME280;7717;47.792;12.076;2022-09-28T01:37:48;94692.59;;;8.88;100.00
15229;BME280;7717;47.792;12.076;2022-09-28T01:40:18;94677.41;;;8.83;100.00
15229;BME280;7717;47.792;12.076;2022-09-28T01:42:46;94680.72;;;8.87;100.00
15229;BME280;7717;47.792;12.076;2022-09-28T01:45:19;94680.69;;;8.89;100.00
15229;BME280;7717;47.792;12.076;2022-09-28T01:47:48;94684.88;;;8.91;100.00
15229;BME280;7717;47.792;12.076;2022-09-28T01:50:20;94677.16;;;8.94;100.00
15229;BME280;7717;47.792;12.076;2022-09-28T01:53:18;94666.19;;;8.91;100.00
15229;BME280;7717;47.792;12.076;2022-09-28T01:55:52;94664.44;;;8.93;100.00
15229;BME280;7717;47.792;12.076;2022-09-28T01:58:46;94655.13;;;8.90;100.00
15229;BME280;7717;47.792;12.076;2022-09-28T02:01:27;94662.84;;;8.87;100.00
15229;BME280;7717;47.792;12.076;2022-09-28T02:03:59;94665.81;;;8.69;100.00
15229;BME280;7717;47.792;12.076;2022-09-28T02:06:37;94660.03;;;8.60;100.00
15229;BME280;7717;47.792;12.076;2022-09-28T02:09:21;94646.22;;;8.71;100.00
15229;BME280;7717;47.792;12.076;2022-09-28T02:11:53;94634.50;;;8.62;100.00
15229;BME280;7717;47.792;12.076;2022-09-28T02:14:23;94636.34;;;8.55;100.00
15229;BME280;7717;47.792;12.076;2022-09-28T02:16:52;94625.28;;;8.55;100.00
15229;BME280;7717;47.792;12.076;2022-09-28T02:19:23;94631.06;;;8.64;100.00
15229;BME280;7717;47.792;12.076;2022-09-28T02:24:51;94619.75;;;8.75;100.00
15229;BME280;7717;47.792;12.076;2022-09-28T02:29:56;94593.56;;;8.68;100.00
15229;BME280;7717;47.792;12.076;2022-09-28T02:32:23;94580.84;;;8.67;100.00
15229;BME280;7717;47.792;12.076;2022-09-28T02:34:50;94572.47;;;8.61;100.00
15229;BME280;7717;47.792;12.076;2022-09-28T02:37:15;94567.19;;;8.69;100.00
15229;BME280;7717;47.792;12.076;2022-09-28T02:39:41;94568.88;;;8.69;100.00
15229;BME280;7717;47.792;12.076;2022-09-28T02:42:23;94552.81;;;8.65;100.00
15229;BME280;7717;47.792;12.076;2022-09-28T02:45:17;94552.75;;;8.68;100.00
15229;BME280;7717;47.792;12.076;2022-09-28T02:47:59;94557.88;;;8.67;100.00
15229;BME280;7717;47.792;12.076;2022-09-28T02:53:48;94547.53;;;8.73;100.00
15229;BME280;7717;47.792;12.076;2022-09-28T03:06:40;94512.59;;;8.39;100.00
15229;BME280;7717;47.792;12.076;2022-09-28T03:09:23;94503.63;;;8.22;100.00
15229;BME280;7717;47.792;12.076;2022-09-28T03:11:56;94499.31;;;8.26;100.00
15229;BME280;7717;47.792;12.076;2022-09-28T03:14:23;94496.84;;;8.21;100.00
15229;BME280;7717;47.792;12.076;2022-09-28T03:16:48;94483.31;;;8.19;100.00
15229;BME280;7717;47.792;12.076;2022-09-28T03:19:16;94489.03;;;8.29;100.00
15229;BME280;7717;47.792;12.076;2022-09-28T03:21:44;94486.59;;;8.24;100.00
15229;BME280;7717;47.792;12.076;2022-09-28T03:24:09;94484.81;;;8.28;100.00
15229;BME280;7717;47.792;12.076;2022-09-28T03:26:38;94484.56;;;8.39;100.00
15229;BME280;7717;47.792;12.076;2022-09-28T03:29:04;94483.56;;;8.46;100.00
15229;BME280;7717;47.792;12.076;2022-09-28T03:31:30;94467.66;;;8.35;100.00
15229;BME280;7717;47.792;12.076;2022-09-28T03:33:55;94461.84;;;8.28;100.00
15229;BME280;7717;47.792;12.076;2022-09-28T03:36:20;94466.69;;;8.03;100.00
15229;BME280;7717;47.792;12.076;2022-09-28T03:38:46;94464.69;;;8.16;100.00
15229;BME280;7717;47.792;12.076;2022-09-28T03:41:11;94449.16;;;8.26;100.00
15229;BME280;7717;47.792;12.076;2022-09-28T03:43:38;94446.72;;;8.22;100.00
15229;BME280;7717;47.792;12.076;2022-09-28T03:46:03;94445.09;;;8.19;100.00
15229;BME280;7717;47.792;12.076;2022-09-28T03:48:31;94439.78;;;8.28;100.00
15229;BME280;7717;47.792;12.076;2022-09-28T03:50:59;94431.25;;;8.29;100.00
15229;BME280;7717;47.792;12.076;2022-09-28T03:53:25;94423.72;;;8.23;100.00
15229;BME280;7717;47.792;12.076;2022-09-28T03:55:51;94419.94;;;8.40;100.00
15229;BME280;7717;47.792;12.076;2022-09-28T03:58:18;94405.75;;;8.29;100.00
15229;BME280;7717;47.792;12.076;2022-09-28T04:00:45;94407.66;;;8.57;100.00
15229;BME280;7717;47.792;12.076;2022-09-28T04:03:10;94402.59;;;8.56;100.00
15229;BME280;7717;47.792;12.076;2022-09-28T04:05:35;94394.03;;;8.58;100.00
15229;BME280;7717;47.792;12.076;2022-09-28T04:08:01;94377.94;;;8.55;100.00
15229;BME280;7717;47.792;12.076;2022-09-28T04:10:26;94389.50;;;8.68;100.00
15229;BME280;7717;47.792;12.076;2022-09-28T04:12:58;94383.72;;;8.63;100.00
15229;BME280;7717;47.792;12.076;2022-09-28T04:15:23;94375.97;;;8.66;100.00
15229;BME280;7717;47.792;12.076;2022-09-28T04:17:49;94386.16;;;8.68;100.00
15229;BME280;7717;47.792;12.076;2022-09-28T04:20:15;94387.91;;;8.64;100.00
15229;BME280;7717;47.792;12.076;2022-09-28T04:22:40;94395.44;;;8.69;100.00
15229;BME280;7717;47.792;12.076;2022-09-28T04:25:06;94396.09;;;8.77;100.00
15229;BME280;7717;47.792;12.076;2022-09-28T04:27:32;94406.25;;;8.78;100.00
15229;BME280;7717;47.792;12.076;2022-09-28T04:30:33;94397.22;;;8.67;100.00
15229;BME280;7717;47.792;12.076;2022-09-28T04:32:59;94402.31;;;8.67;100.00
15229;BME280;7717;47.792;12.076;2022-09-28T04:35:24;94408.94;;;8.74;100.00
15229;BME280;7717;47.792;12.076;2022-09-28T04:37:49;94408.06;;;8.73;100.00
15229;BME280;7717;47.792;12.076;2022-09-28T04:40:15;94376.84;;;8.65;100.00
15229;BME280;7717;47.792;12.076;2022-09-28T04:42:41;94374.34;;;8.63;100.00
15229;BME280;7717;47.792;12.076;2022-09-28T04:45:07;94387.78;;;8.69;100.00
15229;BME280;7717;47.792;12.076;2022-09-28T04:47:32;94414.38;;;8.60;100.00
15229;BME280;7717;47.792;12.076;2022-09-28T04:49:57;94423.03;;;8.54;100.00
15229;BME280;7717;47.792;12.076;2022-09-28T04:52:23;94414.06;;;8.38;100.00
15229;BME280;7717;47.792;12.076;2022-09-28T04:54:48;94397.19;;;7.98;100.00
15229;BME280;7717;47.792;12.076;2022-09-28T04:57:13;94400.09;;;8.18;100.00
15229;BME280;7717;47.792;12.076;2022-09-28T04:59:39;94439.44;;;8.06;100.00
15229;BME280;7717;47.792;12.076;2022-09-28T05:02:04;94446.66;;;7.87;100.00
15229;BME280;7717;47.792;12.076;2022-09-28T05:04:30;94428.03;;;7.85;100.00
15229;BME280;7717;47.792;12.076;2022-09-28T05:06:56;94448.34;;;7.88;100.00
15229;BME280;7717;47.792;12.076;2022-09-28T05:09:21;94470.78;;;7.71;100.00
15229;BME280;7717;47.792;12.076;2022-09-28T05:11:50;94446.59;;;7.89;100.00
15229;BME280;7717;47.792;12.076;2022-09-28T05:14:17;94451.66;;;7.90;100.00
15229;BME280;7717;47.792;12.076;2022-09-28T05:16:44;94448.09;;;7.99;100.00
15229;BME280;7717;47.792;12.076;2022-09-28T05:19:09;94446.28;;;8.04;100.00
15229;BME280;7717;47.792;12.076;2022-09-28T05:21:34;94436.84;;;8.09;100.00
15229;BME280;7717;47.792;12.076;2022-09-28T05:24:00;94460.00;;;7.99;100.00
15229;BME280;7717;47.792;12.076;2022-09-28T05:26:29;94460.72;;;8.04;100.00
15229;BME280;7717;47.792;12.076;2022-09-28T05:28:55;94435.88;;;8.14;100.00
15229;BME280;7717;47.792;12.076;2022-09-28T05:31:20;94427.41;;;8.13;100.00
15229;BME280;7717;47.792;12.076;2022-09-28T05:33:45;94415.13;;;8.29;100.00
15229;BME280;7717;47.792;12.076;2022-09-28T05:36:11;94422.63;;;8.35;100.00
15229;BME280;7717;47.792;12.076;2022-09-28T05:38:36;94420.97;;;8.33;100.00
15229;BME280;7717;47.792;12.076;2022-09-28T05:41:02;94420.88;;;8.36;100.00
15229;BME280;7717;47.792;12.076;2022-09-28T05:43:28;94422.09;;;8.22;100.00
15229;BME280;7717;47.792;12.076;2022-09-28T05:45:53;94418.59;;;8.25;100.00
15229;BME280;7717;47.792;12.076;2022-09-28T05:48:19;94436.41;;;8.26;100.00
15229;BME280;7717;47.792;12.076;2022-09-28T05:50:49;94402.53;;;8.23;100.00
15229;BME280;7717;47.792;12.076;2022-09-28T05:53:15;94419.75;;;8.49;100.00
15229;BME280;7717;47.792;12.076;2022-09-28T05:55:41;94412.91;;;8.51;100.00
15229;BME280;7717;47.792;12.076;2022-09-28T05:58:06;94398.66;;;8.44;100.00
15229;BME280;7717;47.792;12.076;2022-09-28T06:00:33;94409.25;;;8.61;100.00
15229;BME280;7717;47.792;12.076;2022-09-28T06:03:01;94390.25;;;8.72;100.00
15229;BME280;7717;47.792;12.076;2022-09-28T06:05:28;94394.34;;;8.46;100.00
15229;BME280;7717;47.792;12.076;2022-09-28T06:07:59;94394.25;;;8.49;100.00
15229;BME280;7717;47.792;12.076;2022-09-28T06:10:26;94385.00;;;8.78;100.00
15229;BME280;7717;47.792;12.076;2022-09-28T06:12:53;94385.47;;;8.59;100.00
15229;BME280;7717;47.792;12.076;2022-09-28T06:15:20;94372.50;;;8.69;100.00
15229;BME280;7717;47.792;12.076;2022-09-28T06:17:46;94371.63;;;8.70;100.00
15229;BME280;7717;47.792;12.076;2022-09-28T06:20:11;94368.63;;;8.87;100.00
15229;BME280;7717;47.792;12.076;2022-09-28T06:22:37;94373.47;;;8.96;100.00
15229;BME280;7717;47.792;12.076;2022-09-28T06:25:04;94387.31;;;8.87;100.00
15229;BME280;7717;47.792;12.076;2022-09-28T06:27:29;94399.03;;;8.94;100.00
15229;BME280;7717;47.792;12.076;2022-09-28T06:29:54;94397.63;;;9.14;100.00
15229;BME280;7717;47.792;12.076;2022-09-28T06:32:20;94393.31;;;9.17;100.00
15229;BME280;7717;47.792;12.076;2022-09-28T06:34:45;94396.69;;;9.18;100.00
15229;BME280;7717;47.792;12.076;2022-09-28T06:37:10;94406.84;;;9.19;100.00
15229;BME280;7717;47.792;12.076;2022-09-28T06:39:36;94408.56;;;9.19;100.00
15229;BME280;7717;47.792;12.076;2022-09-28T06:42:01;94415.34;;;9.20;100.00
15229;BME280;7717;47.792;12.076;2022-09-28T06:44:28;94419.72;;;9.15;100.00
15229;BME280;7717;47.792;12.076;2022-09-28T06:46:54;94422.63;;;9.03;100.00
15229;BME280;7717;47.792;12.076;2022-09-28T06:49:23;94423.97;;;9.16;100.00
15229;BME280;7717;47.792;12.076;2022-09-28T06:51:51;94427.25;;;9.19;100.00
15229;BME280;7717;47.792;12.076;2022-09-28T06:54:16;94433.63;;;9.05;100.00
15229;BME280;7717;47.792;12.076;2022-09-28T06:56:41;94416.97;;;9.23;100.00
15229;BME280;7717;47.792;12.076;2022-09-28T06:59:07;94406.72;;;9.54;100.00
15229;BME280;7717;47.792;12.076;2022-09-28T07:01:32;94409.53;;;9.15;100.00
15229;BME280;7717;47.792;12.076;2022-09-28T07:03:57;94413.84;;;9.43;100.00
15229;BME280;7717;47.792;12.076;2022-09-28T07:06:25;94415.13;;;9.58;100.00
15229;BME280;7717;47.792;12.076;2022-09-28T07:08:52;94420.63;;;9.44;100.00
15229;BME280;7717;47.792;12.076;2022-09-28T07:11:18;94415.66;;;9.39;100.00
15229;BME280;7717;47.792;12.076;2022-09-28T07:13:45;94421.56;;;9.41;100.00
15229;BME280;7717;47.792;12.076;2022-09-28T07:16:10;94414.47;;;9.51;100.00
15229;BME280;7717;47.792;12.076;2022-09-28T07:18:37;94428.56;;;9.64;100.00
15229;BME280;7717;47.792;12.076;2022-09-28T07:21:02;94432.25;;;9.54;100.00
15229;BME280;7717;47.792;12.076;2022-09-28T07:23:28;94429.53;;;9.60;100.00
15229;BME280;7717;47.792;12.076;2022-09-28T07:25:55;94427.78;;;9.61;100.00
15229;BME280;7717;47.792;12.076;2022-09-28T07:28:25;94431.47;;;9.52;100.00
15229;BME280;7717;47.792;12.076;2022-09-28T07:30:50;94431.06;;;9.66;100.00
15229;BME280;7717;47.792;12.076;2022-09-28T07:33:16;94436.50;;;9.83;100.00
15229;BME280;7717;47.792;12.076;2022-09-28T07:35:49;94436.84;;;9.11;100.00
15229;BME280;7717;47.792;12.076;2022-09-28T07:38:16;94446.03;;;9.17;100.00
15229;BME280;7717;47.792;12.076;2022-09-28T07:40:41;94448.44;;;9.23;100.00
15229;BME280;7717;47.792;12.076;2022-09-28T07:43:26;94448.75;;;9.11;100.00
15229;BME280;7717;47.792;12.076;2022-09-28T07:45:52;94465.63;;;9.16;100.00
15229;BME280;7717;47.792;12.076;2022-09-28T07:48:21;94466.22;;;9.26;100.00
15229;BME280;7717;47.792;12.076;2022-09-28T07:50:48;94454.94;;;9.04;100.00
15229;BME280;7717;47.792;12.076;2022-09-28T07:53:18;94468.44;;;9.07;100.00
15229;BME280;7717;47.792;12.076;2022-09-28T07:55:50;94464.31;;;9.33;100.00
15229;BME280;7717;47.792;12.076;2022-09-28T07:58:16;94468.53;;;9.35;100.00
15229;BME280;7717;47.792;12.076;2022-09-28T08:00:41;94474.31;;;9.41;100.00
15229;BME280;7717;47.792;12.076;2022-09-28T08:03:09;94470.19;;;9.36;100.00
15229;BME280;7717;47.792;12.076;2022-09-28T08:05:34;94448.09;;;9.04;100.00
15229;BME280;7717;47.792;12.076;2022-09-28T08:08:01;94468.59;;;9.32;100.00
15229;BME280;7717;47.792;12.076;2022-09-28T08:10:26;94458.63;;;9.54;100.00
15229;BME280;7717;47.792;12.076;2022-09-28T08:12:56;94462.34;;;9.44;100.00
15229;BME280;7717;47.792;12.076;2022-09-28T08:15:22;94462.03;;;9.55;100.00
15229;BME280;7717;47.792;12.076;2022-09-28T08:17:48;94468.00;;;9.54;100.00
15229;BME280;7717;47.792;12.076;2022-09-28T08:20:14;94457.53;;;9.63;100.00
15229;BME280;7717;47.792;12.076;2022-09-28T08:23:06;94456.19;;;9.80;100.00
15229;BME280;7717;47.792;12.076;2022-09-28T08:25:32;94460.19;;;9.88;100.00
15229;BME280;7717;47.792;12.076;2022-09-28T08:27:58;94449.94;;;9.90;100.00
15229;BME280;7717;47.792;12.076;2022-09-28T08:30:24;94456.91;;;9.85;100.00
15229;BME280;7717;47.792;12.076;2022-09-28T08:32:50;94457.22;;;10.02;100.00
15229;BME280;7717;47.792;12.076;2022-09-28T08:35:16;94451.97;;;9.79;100.00
15229;BME280;7717;47.792;12.076;2022-09-28T08:37:41;94463.94;;;9.77;100.00
15229;BME280;7717;47.792;12.076;2022-09-28T08:40:16;94449.09;;;9.89;100.00
15229;BME280;7717;47.792;12.076;2022-09-28T08:42:43;94443.53;;;10.05;100.00
15229;BME280;7717;47.792;12.076;2022-09-28T08:45:12;94453.63;;;10.09;100.00
15229;BME280;7717;47.792;12.076;2022-09-28T08:47:49;94459.31;;;10.18;100.00
15229;BME280;7717;47.792;12.076;2022-09-28T08:50:35;94439.78;;;10.43;100.00
15229;BME280;7717;47.792;12.076;2022-09-28T08:55:52;94461.13;;;10.69;100.00
15229;BME280;7717;47.792;12.076;2022-09-28T08:58:25;94458.41;;;10.49;100.00
15229;BME280;7717;47.792;12.076;2022-09-28T09:00:54;94473.84;;;10.46;100.00
15229;BME280;7717;47.792;12.076;2022-09-28T09:03:22;94478.94;;;10.72;100.00
15229;BME280;7717;47.792;12.076;2022-09-28T09:06:04;94472.06;;;10.74;100.00
15229;BME280;7717;47.792;12.076;2022-09-28T09:08:49;94482.38;;;10.71;100.00
15229;BME280;7717;47.792;12.076;2022-09-28T09:11:33;94461.63;;;11.06;100.00
15229;BME280;7717;47.792;12.076;2022-09-28T09:19:24;94483.06;;;10.76;100.00
15229;BME280;7717;47.792;12.076;2022-09-28T09:21:58;94483.50;;;10.89;100.00
15229;BME280;7717;47.792;12.076;2022-09-28T09:30:16;94478.75;;;11.29;100.00
15229;BME280;7717;47.792;12.076;2022-09-28T09:43:53;94440.44;;;12.19;100.00
15229;BME280;7717;47.792;12.076;2022-09-28T09:46:40;94452.78;;;12.09;100.00
15229;BME280;7717;47.792;12.076;2022-09-28T09:49:17;94445.97;;;11.84;100.00
15229;BME280;7717;47.792;12.076;2022-09-28T09:51:46;94460.75;;;12.01;100.00
15229;BME280;7717;47.792;12.076;2022-09-28T09:54:35;94461.38;;;12.08;100.00
15229;BME280;7717;47.792;12.076;2022-09-28T09:57:18;94457.97;;;12.52;100.00
15229;BME280;7717;47.792;12.076;2022-09-28T09:59:44;94474.75;;;12.38;100.00
15229;BME280;7717;47.792;12.076;2022-09-28T10:02:21;94459.75;;;12.28;100.00
15229;BME280;7717;47.792;12.076;2022-09-28T10:04:49;94453.66;;;12.52;100.00
15229;BME280;7717;47.792;12.076;2022-09-28T10:07:27;94455.63;;;12.68;100.00
15229;BME280;7717;47.792;12.076;2022-09-28T10:09:59;94455.00;;;12.83;100.00
15229;BME280;7717;47.792;12.076;2022-09-28T10:12:27;94451.31;;;12.68;100.00
15229;BME280;7717;47.792;12.076;2022-09-28T10:14:53;94461.50;;;12.49;100.00
15229;BME280;7717;47.792;12.076;2022-09-28T10:17:20;94463.38;;;12.66;100.00
15229;BME280;7717;47.792;12.076;2022-09-28T10:19:51;94445.09;;;12.53;100.00
15229;BME280;7717;47.792;12.076;2022-09-28T10:22:21;94452.50;;;12.59;100.00
15229;BME280;7717;47.792;12.076;2022-09-28T10:24:50;94464.94;;;13.11;100.00
15229;BME280;7717;47.792;12.076;2022-09-28T10:27:23;94466.66;;;13.52;100.00
15229;BME280;7717;47.792;12.076;2022-09-28T10:29:53;94464.22;;;13.49;100.00
15229;BME280;7717;47.792;12.076;2022-09-28T10:32:24;94477.66;;;13.14;100.00
15229;BME280;7717;47.792;12.076;2022-09-28T10:34:51;94475.41;;;13.27;100.00
15229;BME280;7717;47.792;12.076;2022-09-28T10:37:17;94469.63;;;13.43;100.00
15229;BME280;7717;47.792;12.076;2022-09-28T10:39:54;94467.94;;;13.21;100.00
15229;BME280;7717;47.792;12.076;2022-09-28T10:42:27;94479.97;;;13.41;100.00
15229;BME280;7717;47.792;12.076;2022-09-28T10:45:00;94483.25;;;13.45;100.00
15229;BME280;7717;47.792;12.076;2022-09-28T10:47:28;94476.41;;;13.64;100.00
15229;BME280;7717;47.792;12.076;2022-09-28T10:49:57;94490.31;;;14.17;100.00
15229;BME280;7717;47.792;12.076;2022-09-28T10:52:36;94493.44;;;13.86;100.00
15229;BME280;7717;47.792;12.076;2022-09-28T10:55:28;94487.25;;;14.09;100.00
15229;BME280;7717;47.792;12.076;2022-09-28T10:57:54;94500.66;;;14.35;100.00
15229;BME280;7717;47.792;12.076;2022-09-28T11:00:39;94498.56;;;14.62;100.00
15229;BME280;7717;47.792;12.076;2022-09-28T11:03:23;94510.72;;;15.12;100.00
15229;BME280;7717;47.792;12.076;2022-09-28T11:05:58;94504.22;;;14.88;100.00
15229;BME280;7717;47.792;12.076;2022-09-28T11:08:36;94501.31;;;15.11;100.00
15229;BME280;7717;47.792;12.076;2022-09-28T11:11:22;94478.19;;;14.75;100.00
15229;BME280;7717;47.792;12.076;2022-09-28T11:13:59;94487.38;;;14.81;100.00
15229;BME280;7717;47.792;12.076;2022-09-28T11:16:33;94491.16;;;15.59;100.00
15229;BME280;7717;47.792;12.076;2022-09-28T11:19:05;94478.47;;;15.90;100.00
15229;BME280;7717;47.792;12.076;2022-09-28T11:21:40;94466.00;;;17.22;100.00
15229;BME280;7717;47.792;12.076;2022-09-28T11:24:21;94459.47;;;17.89;100.00
15229;BME280;7717;47.792;12.076;2022-09-28T11:26:53;94463.25;;;16.79;100.00
15229;BME280;7717;47.792;12.076;2022-09-28T11:29:34;94475.81;;;16.23;100.00
15229;BME280;7717;47.792;12.076;2022-09-28T11:32:03;94480.66;;;15.46;100.00
15229;BME280;7717;47.792;12.076;2022-09-28T11:34:35;94482.97;;;16.02;100.00
15229;BME280;7717;47.792;12.076;2022-09-28T11:48:13;94499.66;;;14.56;100.00
15229;BME280;7717;47.792;12.076;2022-09-28T11:51:07;94505.94;;;15.05;100.00
15229;BME280;7717;47.792;12.076;2022-09-28T11:58:50;94507.41;;;14.37;100.00
15229;BME280;7717;47.792;12.076;2022-09-28T12:01:33;94517.22;;;14.29;100.00
15229;BME280;7717;47.792;12.076;2022-09-28T12:04:12;94508.91;;;14.61;100.00
15229;BME280;7717;47.792;12.076;2022-09-28T12:06:52;94498.75;;;14.02;100.00
15229;BME280;7717;47.792;12.076;2022-09-28T12:12:22;94524.22;;;13.48;100.00
15229;BME280;7717;47.792;12.076;2022-09-28T12:14:52;94522.41;;;13.09;100.00
15229;BME280;7717;47.792;12.076;2022-09-28T12:17:33;94514.28;;;13.80;100.00
15229;BME280;7717;47.792;12.076;2022-09-28T12:20:09;94507.50;;;13.98;100.00
15229;BME280;7717;47.792;12.076;2022-09-28T12:22:51;94506.16;;;13.89;100.00
15229;BME280;7717;47.792;12.076;2022-09-28T12:25:20;94500.06;;;13.31;100.00
15229;BME280;7717;47.792;12.076;2022-09-28T12:27:56;94512.19;;;14.45;100.00
15229;BME280;7717;47.792;12.076;2022-09-28T12:30:23;94496.09;;;14.59;100.00
15229;BME280;7717;47.792;12.076;2022-09-28T12:32:54;94511.41;;;15.16;100.00
15229;BME280;7717;47.792;12.076;2022-09-28T12:40:51;94501.25;;;17.23;100.00
15229;BME280;7717;47.792;12.076;2022-09-28T12:43:44;94515.84;;;16.62;100.00
15229;BME280;7717;47.792;12.076;2022-09-28T12:55:49;94556.78;;;14.27;100.00
15229;BME280;7717;47.792;12.076;2022-09-28T12:58:48;94552.50;;;14.08;100.00
15229;BME280;7717;47.792;12.076;2022-09-28T13:07:18;94554.91;;;13.72;100.00
15229;BME280;7717;47.792;12.076;2022-09-28T13:17:41;94550.63;;;13.52;100.00
15229;BME280;7717;47.792;12.076;2022-09-28T13:20:19;94554.41;;;13.22;100.00
15229;BME280;7717;47.792;12.076;2022-09-28T13:23:10;94542.19;;;13.27;100.00
15229;BME280;7717;47.792;12.076;2022-09-28T13:25:41;94546.59;;;13.46;100.00
15229;BME280;7717;47.792;12.076;2022-09-28T13:28:10;94553.88;;;13.36;100.00
15229;BME280;7717;47.792;12.076;2022-09-28T13:30:38;94563.75;;;13.45;100.00
15229;BME280;7717;47.792;12.076;2022-09-28T13:33:06;94551.41;;;13.11;100.00
15229;BME280;7717;47.792;12.076;2022-09-28T13:35:40;94549.63;;;13.35;100.00
15229;BME280;7717;47.792;12.076;2022-09-28T13:57:53;94538.69;;;13.50;100.00
15229;BME280;7717;47.792;12.076;2022-09-28T14:03:26;94542.28;;;12.61;100.00
15229;BME280;7717;47.792;12.076;2022-09-28T14:08:33;94529.41;;;13.26;100.00
15229;BME280;7717;47.792;12.076;2022-09-28T14:16:33;94543.47;;;12.74;100.00
15229;BME280;7717;47.792;12.076;2022-09-28T14:19:21;94532.94;;;13.03;100.00
15229;BME280;7717;47.792;12.076;2022-09-28T14:24:37;94548.22;;;12.63;100.00
15229;BME280;7717;47.792;12.076;2022-09-28T14:33:03;94558.00;;;12.53;100.00
15229;BME280;7717;47.792;12.076;2022-09-28T14:35:30;94541.75;;;12.07;100.00
15229;BME280;7717;47.792;12.076;2022-09-28T14:38:16;94544.34;;;12.07;100.00
15229;BME280;7717;47.792;12.076;2022-09-28T14:46:33;94530.66;;;12.52;100.00
15229;BME280;7717;47.792;12.076;2022-09-28T14:54:40;94548.81;;;12.02;100.00
15229;BME280;7717;47.792;12.076;2022-09-28T14:57:21;94539.94;;;11.85;100.00
15229;BME280;7717;47.792;12.076;2022-09-28T14:59:48;94549.78;;;11.49;100.00
15229;BME280;7717;47.792;12.076;2022-09-28T15:02:19;94563.81;;;11.62;100.00
15229;BME280;7717;47.792;12.076;2022-09-28T15:04:52;94527.91;;;11.64;100.00
15229;BME280;7717;47.792;12.076;2022-09-28T15:09:47;94570.84;;;11.57;100.00
15229;BME280;7717;47.792;12.076;2022-09-28T15:12:16;94570.78;;;11.59;100.00
15229;BME280;7717;47.792;12.076;2022-09-28T15:14:54;94564.00;;;11.32;100.00
15229;BME280;7717;47.792;12.076;2022-09-28T15:17:22;94573.94;;;11.42;100.00
15229;BME280;7717;47.792;12.076;2022-09-28T15:22:24;94578.13;;;11.19;100.00
15229;BME280;7717;47.792;12.076;2022-09-28T15:24:57;94594.41;;;11.16;100.00
15229;BME280;7717;47.792;12.076;2022-09-28T15:27:24;94589.13;;;11.21;100.00
15229;BME280;7717;47.792;12.076;2022-09-28T15:30:06;94594.75;;;11.06;100.00
15229;BME280;7717;47.792;12.076;2022-09-28T15:32:39;94601.84;;;10.97;100.00
15229;BME280;7717;47.792;12.076;2022-09-28T15:35:11;94600.69;;;11.06;100.00
15229;BME280;7717;47.792;12.076;2022-09-28T15:37:39;94607.75;;;10.99;100.00
15229;BME280;7717;47.792;12.076;2022-09-28T15:40:11;94598.03;;;11.09;100.00
15229;BME280;7717;47.792;12.076;2022-09-28T15:42:38;94613.09;;;11.19;100.00
15229;BME280;7717;47.792;12.076;2022-09-28T15:47:40;94607.25;;;11.15;100.00
15229;BME280;7717;47.792;12.076;2022-09-28T15:50:30;94615.81;;;11.14;100.00